sensor_id;sensor_type;location;lat;lon;timestamp;temperature;humidity
19892;DHT22;10108;50.142;8.724;2023-07-24T00:01:40;20.00;99.90
19892;DHT22;10108;50.142;8.724;2023-07-24T00:04:06;19.90;99.90
19892;DHT22;10108;50.142;8.724;2023-07-24T00:06:32;19.90;99.90
19892;DHT22;10108;50.142;8.724;2023-07-24T00:08:58;19.90;99.90
19892;DHT22;10108;50.142;8.724;2023-07-24T00:11:24;19.80;99.90
19892;DHT22;10108;50.142;8.724;2023-07-24T00:13:50;19.80;99.90
19892;DHT22;10108;50.142;8.724;2023-07-24T00:16:16;19.80;99.90
19892;DHT22;10108;50.142;8.724;2023-07-24T00:18:43;19.80;99.90
19892;DHT22;10108;50.142;8.724;2023-07-24T00:21:09;19.80;99.90
19892;DHT22;10108;50.142;8.724;2023-07-24T00:23:36;19.80;99.90
19892;DHT22;10108;50.142;8.724;2023-07-24T00:26:02;19.90;99.90
19892;DHT22;10108;50.142;8.724;2023-07-24T00:28:28;19.90;99.90
19892;DHT22;10108;50.142;8.724;2023-07-24T00:30:55;19.90;99.90
19892;DHT22;10108;50.142;8.724;2023-07-24T00:33:22;19.90;99.90
19892;DHT22;10108;50.142;8.724;2023-07-24T00:35:48;19.90;99.90
19892;DHT22;10108;50.142;8.724;2023-07-24T00:38:14;19.90;99.90
19892;DHT22;10108;50.142;8.724;2023-07-24T00:40:40;19.90;99.90
19892;DHT22;10108;50.142;8.724;2023-07-24T00:43:06;19.90;99.90
19892;DHT22;10108;50.142;8.724;2023-07-24T00:45:34;19.90;99.90
19892;DHT22;10108;50.142;8.724;2023-07-24T00:48:01;19.90;99.90
19892;DHT22;10108;50.142;8.724;2023-07-24T00:50:27;19.90;99.90
19892;DHT22;10108;50.142;8.724;2023-07-24T00:52:54;19.90;99.90
19892;DHT22;10108;50.142;8.724;2023-07-24T00:55:21;19.90;99.90
19892;DHT22;10108;50.142;8.724;2023-07-24T00:57:47;19.90;99.90
19892;DHT22;10108;50.142;8.724;2023-07-24T01:00:13;19.90;99.90
19892;DHT22;10108;50.142;8.724;2023-07-24T01:02:40;19.90;99.90
19892;DHT22;10108;50.142;8.724;2023-07-24T01:05:06;19.90;99.90
19892;DHT22;10108;50.142;8.724;2023-07-24T01:07:33;19.90;99.90
19892;DHT22;10108;50.142;8.724;2023-07-24T01:10:00;19.90;99.90
19892;DHT22;10108;50.142;8.724;2023-07-24T01:15:32;19.90;99.90
19892;DHT22;10108;50.142;8.724;2023-07-24T01:18:01;19.90;99.90
19892;DHT22;10108;50.142;8.724;2023-07-24T01:20:30;19.90;99.90
19892;DHT22;10108;50.142;8.724;2023-07-24T01:26:00;19.80;99.90
19892;DHT22;10108;50.142;8.724;2023-07-24T01:28:28;19.80;99.90
19892;DHT22;10108;50.142;8.724;2023-07-24T01:30:55;19.80;99.90
19892;DHT22;10108;50.142;8.724;2023-07-24T01:33:22;19.80;99.90
19892;DHT22;10108;50.142;8.724;2023-07-24T01:35:50;19.70;99.90
19892;DHT22;10108;50.142;8.724;2023-07-24T01:38:19;19.70;99.90
19892;DHT22;10108;50.142;8.724;2023-07-24T01:40:46;19.80;99.90
19892;DHT22;10108;50.142;8.724;2023-07-24T01:43:13;19.70;99.90
19892;DHT22;10108;50.142;8.724;2023-07-24T01:45:40;19.70;99.90
19892;DHT22;10108;50.142;8.724;2023-07-24T01:48:06;19.70;99.90
19892;DHT22;10108;50.142;8.724;2023-07-24T01:50:32;19.70;99.90
19892;DHT22;10108;50.142;8.724;2023-07-24T01:52:58;19.70;99.90
19892;DHT22;10108;50.142;8.724;2023-07-24T01:55:25;19.70;99.90
19892;DHT22;10108;50.142;8.724;2023-07-24T01:57:51;19.70;99.90
19892;DHT22;10108;50.142;8.724;2023-07-24T02:00:17;19.70;99.90
19892;DHT22;10108;50.142;8.724;2023-07-24T02:02:43;19.70;99.90
19892;DHT22;10108;50.142;8.724;2023-07-24T02:05:09;19.70;99.90
19892;DHT22;10108;50.142;8.724;2023-07-24T02:07:35;19.70;99.90
19892;DHT22;10108;50.142;8.724;2023-07-24T02:10:02;19.60;99.90
19892;DHT22;10108;50.142;8.724;2023-07-24T02:12:28;19.60;99.90
19892;DHT22;10108;50.142;8.724;2023-07-24T02:14:54;19.60;99.90
19892;DHT22;10108;50.142;8.724;2023-07-24T02:17:21;19.60;99.90
19892;DHT22;10108;50.142;8.724;2023-07-24T02:19:49;19.60;99.90
19892;DHT22;10108;50.142;8.724;2023-07-24T02:22:15;19.60;99.90
19892;DHT22;10108;50.142;8.724;2023-07-24T02:24:42;19.60;99.90
19892;DHT22;10108;50.142;8.724;2023-07-24T02:27:12;19.60;99.90
19892;DHT22;10108;50.142;8.724;2023-07-24T02:29:39;19.60;99.90
19892;DHT22;10108;50.142;8.724;2023-07-24T02:32:05;19.60;99.90
19892;DHT22;10108;50.142;8.724;2023-07-24T02:34:31;19.60;99.90
19892;DHT22;10108;50.142;8.724;2023-07-24T02:36:57;19.60;99.90
19892;DHT22;10108;50.142;8.724;2023-07-24T02:39:23;19.60;99.90
19892;DHT22;10108;50.142;8.724;2023-07-24T02:41:49;19.50;99.90
19892;DHT22;10108;50.142;8.724;2023-07-24T02:44:17;19.50;99.90
19892;DHT22;10108;50.142;8.724;2023-07-24T02:46:43;19.50;99.90
19892;DHT22;10108;50.142;8.724;2023-07-24T02:49:09;19.50;99.90
19892;DHT22;10108;50.142;8.724;2023-07-24T02:51:35;19.40;99.90
19892;DHT22;10108;50.142;8.724;2023-07-24T02:54:01;19.40;99.90
19892;DHT22;10108;50.142;8.724;2023-07-24T02:56:27;19.40;99.90
19892;DHT22;10108;50.142;8.724;2023-07-24T02:58:54;19.40;99.90
19892;DHT22;10108;50.142;8.724;2023-07-24T03:01:20;19.40;99.90
19892;DHT22;10108;50.142;8.724;2023-07-24T03:03:46;19.40;99.90
19892;DHT22;10108;50.142;8.724;2023-07-24T03:06:12;19.40;99.90
19892;DHT22;10108;50.142;8.724;2023-07-24T03:08:38;19.40;99.90
19892;DHT22;10108;50.142;8.724;2023-07-24T03:11:05;19.40;99.90
19892;DHT22;10108;50.142;8.724;2023-07-24T03:13:31;19.40;99.90
19892;DHT22;10108;50.142;8.724;2023-07-24T03:15:58;19.40;99.90
19892;DHT22;10108;50.142;8.724;2023-07-24T03:18:25;19.30;99.90
19892;DHT22;10108;50.142;8.724;2023-07-24T03:20:51;19.30;99.90
19892;DHT22;10108;50.142;8.724;2023-07-24T03:23:18;19.40;99.90
19892;DHT22;10108;50.142;8.724;2023-07-24T03:25:44;19.40;99.90
19892;DHT22;10108;50.142;8.724;2023-07-24T03:28:10;19.40;99.90
19892;DHT22;10108;50.142;8.724;2023-07-24T03:30:37;19.40;99.90
19892;DHT22;10108;50.142;8.724;2023-07-24T03:33:03;19.40;99.90
19892;DHT22;10108;50.142;8.724;2023-07-24T03:35:30;19.40;99.90
19892;DHT22;10108;50.142;8.724;2023-07-24T03:37:56;19.40;99.90
19892;DHT22;10108;50.142;8.724;2023-07-24T03:40:23;19.40;99.90
19892;DHT22;10108;50.142;8.724;2023-07-24T03:42:49;19.30;99.90
19892;DHT22;10108;50.142;8.724;2023-07-24T03:45:15;19.30;99.90
19892;DHT22;10108;50.142;8.724;2023-07-24T03:47:41;19.20;99.90
19892;DHT22;10108;50.142;8.724;2023-07-24T03:50:08;19.20;99.90
19892;DHT22;10108;50.142;8.724;2023-07-24T03:52:34;19.20;99.90
19892;DHT22;10108;50.142;8.724;2023-07-24T03:55:01;19.20;99.90
19892;DHT22;10108;50.142;8.724;2023-07-24T03:57:27;19.10;99.90
19892;DHT22;10108;50.142;8.724;2023-07-24T03:59:53;19.10;99.90
19892;DHT22;10108;50.142;8.724;2023-07-24T04:02:19;19.10;99.90
19892;DHT22;10108;50.142;8.724;2023-07-24T04:04:45;19.10;99.90
19892;DHT22;10108;50.142;8.724;2023-07-24T04:07:11;19.10;99.90
19892;DHT22;10108;50.142;8.724;2023-07-24T04:09:37;19.10;99.90
19892;DHT22;10108;50.142;8.724;2023-07-24T04:12:04;19.10;99.90
19892;DHT22;10108;50.142;8.724;2023-07-24T04:14:30;19.10;99.90
19892;DHT22;10108;50.142;8.724;2023-07-24T04:16:56;19.10;99.90
19892;DHT22;10108;50.142;8.724;2023-07-24T04:19:22;19.20;99.90
19892;DHT22;10108;50.142;8.724;2023-07-24T04:21:48;19.20;99.90
19892;DHT22;10108;50.142;8.724;2023-07-24T04:24:14;19.20;99.90
19892;DHT22;10108;50.142;8.724;2023-07-24T04:26:40;19.20;99.90
19892;DHT22;10108;50.142;8.724;2023-07-24T04:29:08;19.20;99.90
19892;DHT22;10108;50.142;8.724;2023-07-24T04:31:34;19.20;99.90
19892;DHT22;10108;50.142;8.724;2023-07-24T04:34:00;19.20;99.90
19892;DHT22;10108;50.142;8.724;2023-07-24T04:36:26;19.20;99.90
19892;DHT22;10108;50.142;8.724;2023-07-24T04:38:52;19.20;99.90
19892;DHT22;10108;50.142;8.724;2023-07-24T04:41:18;19.20;99.90
19892;DHT22;10108;50.142;8.724;2023-07-24T04:43:44;19.30;99.90
19892;DHT22;10108;50.142;8.724;2023-07-24T04:46:10;19.30;99.90
19892;DHT22;10108;50.142;8.724;2023-07-24T04:48:37;19.30;99.90
19892;DHT22;10108;50.142;8.724;2023-07-24T04:51:03;19.40;99.90
19892;DHT22;10108;50.142;8.724;2023-07-24T04:53:29;19.40;99.90
19892;DHT22;10108;50.142;8.724;2023-07-24T04:55:55;19.40;99.90
19892;DHT22;10108;50.142;8.724;2023-07-24T04:58:21;19.50;99.90
19892;DHT22;10108;50.142;8.724;2023-07-24T05:00:47;19.50;99.90
19892;DHT22;10108;50.142;8.724;2023-07-24T05:03:13;19.50;99.90
19892;DHT22;10108;50.142;8.724;2023-07-24T05:05:42;19.50;99.90
19892;DHT22;10108;50.142;8.724;2023-07-24T05:08:08;19.60;99.90
19892;DHT22;10108;50.142;8.724;2023-07-24T05:10:37;19.60;99.90
19892;DHT22;10108;50.142;8.724;2023-07-24T05:13:03;19.60;99.90
19892;DHT22;10108;50.142;8.724;2023-07-24T05:15:29;19.60;99.90
19892;DHT22;10108;50.142;8.724;2023-07-24T05:17:56;19.60;99.90
19892;DHT22;10108;50.142;8.724;2023-07-24T05:20:22;19.60;99.90
19892;DHT22;10108;50.142;8.724;2023-07-24T05:22:48;19.60;99.90
19892;DHT22;10108;50.142;8.724;2023-07-24T05:25:14;19.60;99.90
19892;DHT22;10108;50.142;8.724;2023-07-24T05:27:40;19.60;99.90
19892;DHT22;10108;50.142;8.724;2023-07-24T05:30:07;19.60;99.90
19892;DHT22;10108;50.142;8.724;2023-07-24T05:32:33;19.60;99.90
19892;DHT22;10108;50.142;8.724;2023-07-24T05:34:59;19.60;99.90
19892;DHT22;10108;50.142;8.724;2023-07-24T05:37:25;19.70;99.90
19892;DHT22;10108;50.142;8.724;2023-07-24T05:39:51;19.70;99.90
19892;DHT22;10108;50.142;8.724;2023-07-24T05:42:17;19.70;99.90
19892;DHT22;10108;50.142;8.724;2023-07-24T05:44:43;19.70;99.90
19892;DHT22;10108;50.142;8.724;2023-07-24T05:47:09;19.80;99.90
19892;DHT22;10108;50.142;8.724;2023-07-24T05:49:35;19.80;99.90
19892;DHT22;10108;50.142;8.724;2023-07-24T05:52:01;19.90;99.90
19892;DHT22;10108;50.142;8.724;2023-07-24T05:54:28;19.90;99.90
19892;DHT22;10108;50.142;8.724;2023-07-24T05:56:54;19.90;99.90
19892;DHT22;10108;50.142;8.724;2023-07-24T05:59:20;20.00;99.90
19892;DHT22;10108;50.142;8.724;2023-07-24T06:01:46;20.00;99.90
19892;DHT22;10108;50.142;8.724;2023-07-24T06:04:12;20.10;99.90
19892;DHT22;10108;50.142;8.724;2023-07-24T06:06:38;20.10;99.90
19892;DHT22;10108;50.142;8.724;2023-07-24T06:09:04;20.10;99.90
19892;DHT22;10108;50.142;8.724;2023-07-24T06:11:30;20.10;99.90
19892;DHT22;10108;50.142;8.724;2023-07-24T06:13:56;20.10;99.90
19892;DHT22;10108;50.142;8.724;2023-07-24T06:16:23;20.20;99.90
19892;DHT22;10108;50.142;8.724;2023-07-24T06:18:49;20.20;99.90
19892;DHT22;10108;50.142;8.724;2023-07-24T06:21:15;20.20;99.90
19892;DHT22;10108;50.142;8.724;2023-07-24T06:23:41;20.20;99.90
19892;DHT22;10108;50.142;8.724;2023-07-24T06:26:07;20.30;99.90
19892;DHT22;10108;50.142;8.724;2023-07-24T06:28:33;20.30;99.90
19892;DHT22;10108;50.142;8.724;2023-07-24T06:30:59;20.30;99.90
19892;DHT22;10108;50.142;8.724;2023-07-24T06:33:25;20.30;99.90
19892;DHT22;10108;50.142;8.724;2023-07-24T06:35:52;20.30;99.90
19892;DHT22;10108;50.142;8.724;2023-07-24T06:38:18;20.30;99.90
19892;DHT22;10108;50.142;8.724;2023-07-24T06:40:44;20.30;99.90
19892;DHT22;10108;50.142;8.724;2023-07-24T06:43:10;20.40;99.90
19892;DHT22;10108;50.142;8.724;2023-07-24T06:45:36;20.40;99.90
19892;DHT22;10108;50.142;8.724;2023-07-24T06:48:02;20.40;99.90
19892;DHT22;10108;50.142;8.724;2023-07-24T06:50:28;20.40;99.90
19892;DHT22;10108;50.142;8.724;2023-07-24T06:52:54;20.50;99.90
19892;DHT22;10108;50.142;8.724;2023-07-24T06:55:21;20.50;99.90
19892;DHT22;10108;50.142;8.724;2023-07-24T06:57:47;20.60;99.90
19892;DHT22;10108;50.142;8.724;2023-07-24T07:00:14;20.60;99.90
19892;DHT22;10108;50.142;8.724;2023-07-24T07:02:40;20.60;99.90
19892;DHT22;10108;50.142;8.724;2023-07-24T07:05:06;20.60;99.90
19892;DHT22;10108;50.142;8.724;2023-07-24T07:07:32;20.60;99.90
19892;DHT22;10108;50.142;8.724;2023-07-24T07:09:59;20.60;99.90
19892;DHT22;10108;50.142;8.724;2023-07-24T07:12:25;20.70;99.90
19892;DHT22;10108;50.142;8.724;2023-07-24T07:14:51;20.70;99.90
19892;DHT22;10108;50.142;8.724;2023-07-24T07:17:17;20.70;99.90
19892;DHT22;10108;50.142;8.724;2023-07-24T07:19:43;20.70;99.90
19892;DHT22;10108;50.142;8.724;2023-07-24T07:22:09;20.70;99.90
19892;DHT22;10108;50.142;8.724;2023-07-24T07:24:35;20.80;99.90
19892;DHT22;10108;50.142;8.724;2023-07-24T07:27:01;20.80;99.90
19892;DHT22;10108;50.142;8.724;2023-07-24T07:29:28;20.90;99.90
19892;DHT22;10108;50.142;8.724;2023-07-24T07:31:54;20.90;99.90
19892;DHT22;10108;50.142;8.724;2023-07-24T07:34:20;20.90;99.90
19892;DHT22;10108;50.142;8.724;2023-07-24T07:36:46;20.90;99.90
19892;DHT22;10108;50.142;8.724;2023-07-24T07:39:12;20.90;99.90
19892;DHT22;10108;50.142;8.724;2023-07-24T07:41:38;21.00;99.90
19892;DHT22;10108;50.142;8.724;2023-07-24T07:44:04;21.00;99.90
19892;DHT22;10108;50.142;8.724;2023-07-24T07:46:30;21.10;99.90
19892;DHT22;10108;50.142;8.724;2023-07-24T07:48:56;21.10;99.90
19892;DHT22;10108;50.142;8.724;2023-07-24T07:51:22;21.20;99.90
19892;DHT22;10108;50.142;8.724;2023-07-24T07:53:51;21.20;99.90
19892;DHT22;10108;50.142;8.724;2023-07-24T07:56:17;21.20;99.90
19892;DHT22;10108;50.142;8.724;2023-07-24T07:58:43;21.20;99.90
19892;DHT22;10108;50.142;8.724;2023-07-24T08:01:09;21.30;99.90
19892;DHT22;10108;50.142;8.724;2023-07-24T08:03:35;21.40;99.90
19892;DHT22;10108;50.142;8.724;2023-07-24T08:06:02;21.40;99.90
19892;DHT22;10108;50.142;8.724;2023-07-24T08:08:28;21.40;99.90
19892;DHT22;10108;50.142;8.724;2023-07-24T08:10:54;21.40;99.90
19892;DHT22;10108;50.142;8.724;2023-07-24T08:13:21;21.50;99.90
19892;DHT22;10108;50.142;8.724;2023-07-24T08:15:47;21.40;99.90
19892;DHT22;10108;50.142;8.724;2023-07-24T08:18:13;21.50;99.90
19892;DHT22;10108;50.142;8.724;2023-07-24T08:20:39;21.40;99.90
19892;DHT22;10108;50.142;8.724;2023-07-24T08:23:06;21.40;99.90
19892;DHT22;10108;50.142;8.724;2023-07-24T08:25:32;21.30;99.90
19892;DHT22;10108;50.142;8.724;2023-07-24T08:27:58;21.40;99.90
19892;DHT22;10108;50.142;8.724;2023-07-24T08:30:24;21.40;99.90
19892;DHT22;10108;50.142;8.724;2023-07-24T08:32:50;21.40;99.90
19892;DHT22;10108;50.142;8.724;2023-07-24T08:35:17;21.30;99.90
19892;DHT22;10108;50.142;8.724;2023-07-24T08:37:43;21.30;99.90
19892;DHT22;10108;50.142;8.724;2023-07-24T08:40:12;21.30;99.90
19892;DHT22;10108;50.142;8.724;2023-07-24T08:42:39;21.40;99.90
19892;DHT22;10108;50.142;8.724;2023-07-24T08:45:11;21.40;99.90
19892;DHT22;10108;50.142;8.724;2023-07-24T08:47:42;21.40;99.90
19892;DHT22;10108;50.142;8.724;2023-07-24T08:50:10;21.50;99.90
19892;DHT22;10108;50.142;8.724;2023-07-24T08:52:39;21.50;99.90
19892;DHT22;10108;50.142;8.724;2023-07-24T08:55:06;21.50;99.90
19892;DHT22;10108;50.142;8.724;2023-07-24T08:57:32;21.50;99.90
19892;DHT22;10108;50.142;8.724;2023-07-24T08:59:58;21.60;99.90
19892;DHT22;10108;50.142;8.724;2023-07-24T09:02:26;21.60;99.90
19892;DHT22;10108;50.142;8.724;2023-07-24T09:04:52;21.60;99.90
19892;DHT22;10108;50.142;8.724;2023-07-24T09:07:19;21.70;99.90
19892;DHT22;10108;50.142;8.724;2023-07-24T09:09:47;21.70;99.90
19892;DHT22;10108;50.142;8.724;2023-07-24T09:12:16;21.60;99.90
19892;DHT22;10108;50.142;8.724;2023-07-24T09:14:42;21.60;99.90
19892;DHT22;10108;50.142;8.724;2023-07-24T09:17:11;21.60;99.90
19892;DHT22;10108;50.142;8.724;2023-07-24T09:19:38;21.60;99.90
19892;DHT22;10108;50.142;8.724;2023-07-24T09:22:12;21.60;99.90
19892;DHT22;10108;50.142;8.724;2023-07-24T09:24:56;21.50;99.90
19892;DHT22;10108;50.142;8.724;2023-07-24T09:27:29;21.50;99.90
19892;DHT22;10108;50.142;8.724;2023-07-24T09:29:55;21.60;99.90
19892;DHT22;10108;50.142;8.724;2023-07-24T09:32:23;21.70;99.90
19892;DHT22;10108;50.142;8.724;2023-07-24T09:34:50;21.70;99.90
19892;DHT22;10108;50.142;8.724;2023-07-24T09:37:27;21.80;99.90
19892;DHT22;10108;50.142;8.724;2023-07-24T09:39:53;21.90;99.90
19892;DHT22;10108;50.142;8.724;2023-07-24T09:42:34;21.90;99.90
19892;DHT22;10108;50.142;8.724;2023-07-24T09:45:04;22.00;99.90
19892;DHT22;10108;50.142;8.724;2023-07-24T09:47:31;22.00;99.90
19892;DHT22;10108;50.142;8.724;2023-07-24T09:49:59;22.00;99.90
19892;DHT22;10108;50.142;8.724;2023-07-24T09:52:27;22.00;99.90
19892;DHT22;10108;50.142;8.724;2023-07-24T09:57:40;22.00;99.90
19892;DHT22;10108;50.142;8.724;2023-07-24T10:00:06;21.90;99.90
19892;DHT22;10108;50.142;8.724;2023-07-24T10:02:34;21.90;99.90
19892;DHT22;10108;50.142;8.724;2023-07-24T10:05:01;22.00;99.90
19892;DHT22;10108;50.142;8.724;2023-07-24T10:07:27;22.00;99.90
19892;DHT22;10108;50.142;8.724;2023-07-24T10:09:54;22.00;99.90
19892;DHT22;10108;50.142;8.724;2023-07-24T10:12:21;22.10;99.90
19892;DHT22;10108;50.142;8.724;2023-07-24T10:14:48;22.20;99.90
19892;DHT22;10108;50.142;8.724;2023-07-24T10:17:14;22.20;99.90
19892;DHT22;10108;50.142;8.724;2023-07-24T10:19:49;22.30;99.90
19892;DHT22;10108;50.142;8.724;2023-07-24T10:22:19;22.30;99.90
19892;DHT22;10108;50.142;8.724;2023-07-24T10:24:46;22.30;99.90
19892;DHT22;10108;50.142;8.724;2023-07-24T10:27:13;22.30;99.90
19892;DHT22;10108;50.142;8.724;2023-07-24T10:29:39;22.30;99.90
19892;DHT22;10108;50.142;8.724;2023-07-24T10:32:25;22.30;99.90
19892;DHT22;10108;50.142;8.724;2023-07-24T10:35:21;22.30;99.90
19892;DHT22;10108;50.142;8.724;2023-07-24T10:37:59;22.30;99.90
19892;DHT22;10108;50.142;8.724;2023-07-24T10:40:26;22.30;99.90
19892;DHT22;10108;50.142;8.724;2023-07-24T10:43:00;22.40;99.90
19892;DHT22;10108;50.142;8.724;2023-07-24T10:45:26;22.40;99.90
19892;DHT22;10108;50.142;8.724;2023-07-24T10:47:52;22.40;99.90
19892;DHT22;10108;50.142;8.724;2023-07-24T10:50:19;22.40;99.90
19892;DHT22;10108;50.142;8.724;2023-07-24T10:52:47;22.40;99.90
19892;DHT22;10108;50.142;8.724;2023-07-24T10:55:13;22.40;99.90
19892;DHT22;10108;50.142;8.724;2023-07-24T10:57:39;22.50;99.90
19892;DHT22;10108;50.142;8.724;2023-07-24T11:00:06;22.50;99.90
19892;DHT22;10108;50.142;8.724;2023-07-24T11:02:32;22.50;99.90
19892;DHT22;10108;50.142;8.724;2023-07-24T11:04:59;22.50;99.90
19892;DHT22;10108;50.142;8.724;2023-07-24T11:07:32;22.60;99.90
19892;DHT22;10108;50.142;8.724;2023-07-24T11:09:58;22.60;99.90
19892;DHT22;10108;50.142;8.724;2023-07-24T11:12:24;22.60;99.90
19892;DHT22;10108;50.142;8.724;2023-07-24T11:14:53;22.70;99.90
19892;DHT22;10108;50.142;8.724;2023-07-24T11:17:34;22.60;99.90
19892;DHT22;10108;50.142;8.724;2023-07-24T11:20:12;22.60;99.90
19892;DHT22;10108;50.142;8.724;2023-07-24T11:22:40;22.70;99.90
19892;DHT22;10108;50.142;8.724;2023-07-24T11:25:07;22.60;99.90
19892;DHT22;10108;50.142;8.724;2023-07-24T11:27:41;22.70;99.90
19892;DHT22;10108;50.142;8.724;2023-07-24T11:30:12;22.70;99.90
19892;DHT22;10108;50.142;8.724;2023-07-24T11:32:39;22.70;99.90
19892;DHT22;10108;50.142;8.724;2023-07-24T11:35:07;22.70;99.90
19892;DHT22;10108;50.142;8.724;2023-07-24T11:37:34;22.70;99.90
19892;DHT22;10108;50.142;8.724;2023-07-24T11:40:02;22.70;99.90
19892;DHT22;10108;50.142;8.724;2023-07-24T11:42:48;22.70;99.90
19892;DHT22;10108;50.142;8.724;2023-07-24T11:45:15;22.70;99.90
19892;DHT22;10108;50.142;8.724;2023-07-24T11:47:46;22.80;99.90
19892;DHT22;10108;50.142;8.724;2023-07-24T11:50:12;22.80;99.90
19892;DHT22;10108;50.142;8.724;2023-07-24T11:52:40;22.80;99.90
19892;DHT22;10108;50.142;8.724;2023-07-24T11:55:10;22.80;99.90
19892;DHT22;10108;50.142;8.724;2023-07-24T11:57:37;22.80;99.90
19892;DHT22;10108;50.142;8.724;2023-07-24T12:00:04;22.70;99.90
19892;DHT22;10108;50.142;8.724;2023-07-24T12:02:33;22.70;99.90
19892;DHT22;10108;50.142;8.724;2023-07-24T12:05:00;22.70;99.90
19892;DHT22;10108;50.142;8.724;2023-07-24T12:07:35;22.70;99.90
19892;DHT22;10108;50.142;8.724;2023-07-24T12:10:03;22.80;99.90
19892;DHT22;10108;50.142;8.724;2023-07-24T12:12:43;22.70;99.90
19892;DHT22;10108;50.142;8.724;2023-07-24T12:15:10;22.70;99.90
19892;DHT22;10108;50.142;8.724;2023-07-24T12:17:37;22.70;99.90
19892;DHT22;10108;50.142;8.724;2023-07-24T12:20:04;22.80;99.90
19892;DHT22;10108;50.142;8.724;2023-07-24T12:22:32;22.90;99.90
19892;DHT22;10108;50.142;8.724;2023-07-24T12:24:58;23.00;99.90
19892;DHT22;10108;50.142;8.724;2023-07-24T12:27:24;23.10;99.90
19892;DHT22;10108;50.142;8.724;2023-07-24T12:29:53;23.00;99.90
19892;DHT22;10108;50.142;8.724;2023-07-24T12:32:19;23.00;99.90
19892;DHT22;10108;50.142;8.724;2023-07-24T12:34:47;22.90;99.90
19892;DHT22;10108;50.142;8.724;2023-07-24T12:37:13;22.80;99.90
19892;DHT22;10108;50.142;8.724;2023-07-24T12:39:39;22.70;99.90
19892;DHT22;10108;50.142;8.724;2023-07-24T12:42:05;22.70;99.90
19892;DHT22;10108;50.142;8.724;2023-07-24T12:44:32;22.60;99.90
19892;DHT22;10108;50.142;8.724;2023-07-24T12:46:58;22.70;99.90
19892;DHT22;10108;50.142;8.724;2023-07-24T12:49:24;22.90;99.90
19892;DHT22;10108;50.142;8.724;2023-07-24T12:51:50;23.00;99.90
19892;DHT22;10108;50.142;8.724;2023-07-24T12:54:17;23.00;99.90
19892;DHT22;10108;50.142;8.724;2023-07-24T12:56:46;22.90;99.90
19892;DHT22;10108;50.142;8.724;2023-07-24T12:59:12;22.90;99.90
19892;DHT22;10108;50.142;8.724;2023-07-24T13:01:38;22.90;99.90
19892;DHT22;10108;50.142;8.724;2023-07-24T13:04:04;22.90;99.90
19892;DHT22;10108;50.142;8.724;2023-07-24T13:06:30;23.00;99.90
19892;DHT22;10108;50.142;8.724;2023-07-24T13:08:56;23.10;99.90
19892;DHT22;10108;50.142;8.724;2023-07-24T13:11:22;23.10;99.90
19892;DHT22;10108;50.142;8.724;2023-07-24T13:13:49;23.10;99.90
19892;DHT22;10108;50.142;8.724;2023-07-24T13:16:16;23.10;99.90
19892;DHT22;10108;50.142;8.724;2023-07-24T13:18:43;23.10;99.90
19892;DHT22;10108;50.142;8.724;2023-07-24T13:21:09;23.20;99.90
19892;DHT22;10108;50.142;8.724;2023-07-24T13:23:35;23.10;99.90
19892;DHT22;10108;50.142;8.724;2023-07-24T13:26:02;23.10;99.90
19892;DHT22;10108;50.142;8.724;2023-07-24T13:28:28;23.10;99.90
19892;DHT22;10108;50.142;8.724;2023-07-24T13:30:54;23.10;99.90
19892;DHT22;10108;50.142;8.724;2023-07-24T13:33:22;23.00;99.90
19892;DHT22;10108;50.142;8.724;2023-07-24T13:35:48;23.00;99.90
19892;DHT22;10108;50.142;8.724;2023-07-24T13:38:16;22.90;99.90
19892;DHT22;10108;50.142;8.724;2023-07-24T13:40:42;22.80;99.90
19892;DHT22;10108;50.142;8.724;2023-07-24T13:43:08;22.90;99.90
19892;DHT22;10108;50.142;8.724;2023-07-24T13:45:34;22.80;99.90
19892;DHT22;10108;50.142;8.724;2023-07-24T13:48:00;22.80;99.90
19892;DHT22;10108;50.142;8.724;2023-07-24T13:50:28;22.90;99.90
19892;DHT22;10108;50.142;8.724;2023-07-24T13:52:54;22.90;99.90
19892;DHT22;10108;50.142;8.724;2023-07-24T13:55:20;22.90;99.90
19892;DHT22;10108;50.142;8.724;2023-07-24T13:57:46;23.00;99.90
19892;DHT22;10108;50.142;8.724;2023-07-24T14:00:12;23.00;99.90
19892;DHT22;10108;50.142;8.724;2023-07-24T14:02:39;23.10;99.90
19892;DHT22;10108;50.142;8.724;2023-07-24T14:05:06;23.10;99.90
19892;DHT22;10108;50.142;8.724;2023-07-24T14:07:32;23.10;99.90
19892;DHT22;10108;50.142;8.724;2023-07-24T14:09:58;23.00;99.90
19892;DHT22;10108;50.142;8.724;2023-07-24T14:12:24;23.00;99.90
19892;DHT22;10108;50.142;8.724;2023-07-24T14:14:50;22.90;99.90
19892;DHT22;10108;50.142;8.724;2023-07-24T14:17:17;22.90;99.90
19892;DHT22;10108;50.142;8.724;2023-07-24T14:19:45;22.90;99.90
19892;DHT22;10108;50.142;8.724;2023-07-24T14:22:11;22.90;99.90
19892;DHT22;10108;50.142;8.724;2023-07-24T14:24:37;22.80;99.90
19892;DHT22;10108;50.142;8.724;2023-07-24T14:27:03;22.80;99.90
19892;DHT22;10108;50.142;8.724;2023-07-24T14:29:29;22.80;99.90
19892;DHT22;10108;50.142;8.724;2023-07-24T14:31:55;22.80;99.90
19892;DHT22;10108;50.142;8.724;2023-07-24T14:34:21;22.70;99.90
19892;DHT22;10108;50.142;8.724;2023-07-24T14:36:47;22.70;99.90
19892;DHT22;10108;50.142;8.724;2023-07-24T14:39:13;22.70;99.90
19892;DHT22;10108;50.142;8.724;2023-07-24T14:41:40;22.60;99.90
19892;DHT22;10108;50.142;8.724;2023-07-24T14:44:06;22.70;99.90
19892;DHT22;10108;50.142;8.724;2023-07-24T14:46:32;22.80;99.90
19892;DHT22;10108;50.142;8.724;2023-07-24T14:48:58;22.80;99.90
19892;DHT22;10108;50.142;8.724;2023-07-24T14:51:24;22.80;99.90
19892;DHT22;10108;50.142;8.724;2023-07-24T14:53:51;22.80;99.90
19892;DHT22;10108;50.142;8.724;2023-07-24T14:56:17;22.90;99.90
19892;DHT22;10108;50.142;8.724;2023-07-24T14:58:43;22.90;99.90
19892;DHT22;10108;50.142;8.724;2023-07-24T15:01:12;22.90;99.90
19892;DHT22;10108;50.142;8.724;2023-07-24T15:03:38;22.80;99.90
19892;DHT22;10108;50.142;8.724;2023-07-24T15:06:04;22.70;99.90
19892;DHT22;10108;50.142;8.724;2023-07-24T15:08:35;22.70;99.90
19892;DHT22;10108;50.142;8.724;2023-07-24T15:11:01;22.70;99.90
19892;DHT22;10108;50.142;8.724;2023-07-24T15:13:27;22.70;99.90
19892;DHT22;10108;50.142;8.724;2023-07-24T15:15:53;22.70;99.90
19892;DHT22;10108;50.142;8.724;2023-07-24T15:18:20;22.70;99.90
19892;DHT22;10108;50.142;8.724;2023-07-24T15:20:46;22.70;99.90
19892;DHT22;10108;50.142;8.724;2023-07-24T15:23:12;22.70;99.90
19892;DHT22;10108;50.142;8.724;2023-07-24T15:25:39;22.60;99.90
19892;DHT22;10108;50.142;8.724;2023-07-24T15:28:05;22.50;99.90
19892;DHT22;10108;50.142;8.724;2023-07-24T15:30:32;22.50;99.90
19892;DHT22;10108;50.142;8.724;2023-07-24T15:32:58;22.50;99.90
19892;DHT22;10108;50.142;8.724;2023-07-24T15:35:24;22.40;99.90
19892;DHT22;10108;50.142;8.724;2023-07-24T15:37:50;22.30;99.90